CYVT

Buffalo Narrows Airport

Buffalo Narrows, Saskatchewan, Canada
METAR CYVT 242100Z 25004KT 210V270 15SM FEW023 FEW060 SCT080 BKN100 BKN250 09/03 A2979 RMK CU1SC1AC3AC3CI1 CU TR CI TR VIRGA DIST E SLP107
Observed Flight Rules
Sep-24 @ 21:00 UTC (23 minutes ago) Visual Flight Rules
Wind Visibility Clouds
250° at 4 knots 15 miles
  • Few at 2,300' AGL
  • Few at 6,000' AGL
  • Scattered at 8,000' AGL
  • Broken at 10,000' AGL
Temperatures Readings
Current 9°C / 48°F
Dewpoint 3°C / 37°F
Humidity 66%
Altimeter 29.79" Hg
Pressure 1010.7 hPa
Elevation 434
METAR CYVT 242100Z 25004KT 210V270 15SM FEW023 FEW060 SCT080 BKN100 BKN250 09/03 A2979 RMK CU1SC1AC3AC3CI1 CU TR CI TR VIRGA DIST E SLP107
Observed Flight Rules
Sep-24 @ 21:00 UTC
(23 minutes ago)
VFR
Wind Visibility
250° at 4 knots 15 miles
Clouds
  • Few at 2,300' AGL
  • Few at 6,000' AGL
  • Scattered at 8,000' AGL
  • Broken at 10,000' AGL
Temperature Dewpoint
9°C / 48°F 3°C / 37°F
Humidity Altimeter Pressure
66% 29.79" Hg 1010.7 hPa